Harvey, Arkansas
Current Conditions -  °F | °C
As of 6:22 AM on Friday 21 Nov 2014 (Local Time) from KMWT Reporting Station
Haze Haze  
Wind Chill: 47°   Ceiling: 500
Heat Index: 47°   Visibility: 2.5mi
Dew Point: 45°   Wind: 3mph
Humidity: 93%   Direction: 110°ESE
Pressure: 30.18"   Gusts: NA
Location:  34.85°N, 93.79°W
Report Text: KMWT 211222Z AUTO 11003KT 2 1/2SM BR OVC005 08/07 A3018 RMK AO2 T00830072
Loading
Personal Weather Stations






























Interactive Weather Map New forecast layout! Learn more

10-Day Weather Forecast

Advertisements
Track Severe Weather on mobile